x

Isle Of Shoals, Nh (iosn3) Weather Station

8:00pm - Wed 23rd Jan 2019 All times are EST. -5 hours from GMT.

  • Wind
    26mph, 28mph gusts
  • Air Temp 40°f
  • Sea Pressure 1015.1mb
  • Isle Of Shoals, Nh
  • Isle Of Shoals, Nh

More Historic Weather Station data

Upgrade to MSW Pro to gain access to the past 30 days of data for over 8000 Wavebouys and Weather Stations around the globe.

Join

Comparision Forecast

View Surf forecast
   
Wed 01/23 8:00pm 26 28 mph 1015.1mb 40f
7:00pm 28 31 mph 1015.6mb 40f
6:00pm 28 31 mph 1016.7mb 40f
5:00pm 25 28 mph 1017.2mb 40f
4:00pm 24 25 mph 1018.1mb 40f
3:00pm 22 24 mph 1018.7mb 39f
2:00pm 26 30 mph 1019.1mb 38f
1:00pm 30 34 mph 1019.7mb 37f
12:00pm 33 37 mph 1021.3mb 35f
11:00am 32 36 mph 1023.3mb 33f
10:00am 32 37 mph 1025.2mb 31f
9:00am 32 36 mph 1026.2mb 31f
8:00am 32 37 mph 1026.8mb 31f
7:00am 28 31 mph 1027.6mb 29f
6:00am 23 25 mph 1028.8mb 28f
5:00am 20 22 mph 1029.5mb 27f
4:00am 15 16 mph 1030.3mb 25f
3:00am 15 17 mph 1030.8mb 26f
2:00am 14 15 mph 1031.9mb 24f
1:00am 10 11 mph 1032.7mb 23f
12:00am 14 16 mph 1033.6mb 22f
Tue 01/22 11:00pm 14 16 mph 1033.7mb 22f
10:00pm 13 14 mph 1034mb 22f
9:00pm 9 10 mph 1033.8mb 22f
8:00pm 15 17 mph 1034mb 22f
7:00pm 16 18 mph 1033.8mb 22f
6:00pm 16 20 mph 1033.6mb 22f
5:00pm 18 22 mph 1033.2mb 24f
4:00pm 24 29 mph 1032.3mb 24f
3:00pm 23 26 mph 1031.8mb 23f
2:00pm 21 23 mph 1031.1mb 21f
1:00pm 25 29 mph 1030.6mb 19f
12:00pm 25 29 mph 1030.1mb 17f
11:00am 26 30 mph 1030.6mb 14f
10:00am 28 32 mph 1030.3mb 11f
9:00am 31 37 mph 1029.2mb 9f
8:00am 33 39 mph 1027.8mb 7f
7:00am 36 39 mph 1025.9mb 7f
6:00am 31 37 mph 1025.2mb 7f
5:00am 34 39 mph 1023mb 6f
4:00am 30 37 mph 1022mb 7f
3:00am 31 37 mph 1020.7mb 7f
2:00am 30 33 mph 1019.8mb 8f
1:00am 30 38 mph 1019mb 7f
12:00am 32 38 mph 1017.7mb 7f
Mon 01/21 11:00pm 31 37 mph 1016.9mb 6f
10:00pm 33 40 mph 1015.9mb 5f
9:00pm 34 40 mph 1014.9mb 5f
8:00pm 38 43 mph 1013.9mb 4f
7:00pm 38 44 mph 1012.9mb 3f
6:00pm 34 39 mph 1012mb 2f
5:00pm 32 37 mph 1010.6mb 3f
4:00pm 37 40 mph 1008.8mb 4f
3:00pm 36 40 mph 1007.4mb 3f
2:00pm 32 38 mph 1006.6mb 5f
1:00pm 31 34 mph 1006mb 2f
12:00pm 23 29 mph 1006.3mb 3f
11:00am 33 37 mph 1006.4mb 2f
10:00am 30 33 mph 1006.2mb 2f
9:00am 31 36 mph 1004.4mb 3f
8:00am 25 30 mph 1003.9mb 4f
7:00am 25 30 mph 1002.7mb 4f
6:00am 26 30 mph 1001.6mb 4f
5:00am 26 32 mph 1000.7mb 4f
4:00am 23 28 mph 1000.3mb 5f
3:00am 25 29 mph 999.5mb 5f
2:00am 33 36 mph 998.2mb 5f
1:00am 31 36 mph 997.1mb 6f
12:00am 36 41 mph 996.4mb 7f
Sun 01/20 11:00pm 33 38 mph 995.3mb 9f
10:00pm 37 41 mph 994.8mb 11f
9:00pm 32 34 mph 993mb 17f
8:00pm 11 14 mph 993.1mb 23f
7:00pm 15 17 mph 991.9mb 22f
6:00pm 18 21 mph 992.3mb 19f
5:00pm 24 26 mph 991.4mb 18f
4:00pm 30 33 mph 992.2mb 16f
3:00pm 23 28 mph 991.7mb 17f
2:00pm 30 32 mph 990.3mb 21f
1:00pm 29 34 mph 992.2mb 20f
12:00pm 30 33 mph 995mb 16f
11:00am 34 40 mph 996.9mb 17f
10:00am 34 39 mph 998.6mb 18f
9:00am 25 32 mph 1000.4mb 19f
8:00am 37 41 mph 1003.4mb -
7:00am 37 45 mph 1004.4mb 33f
6:00am 43 47 mph 1005.7mb 32f
5:00am 37 43 mph 1009.4mb 30f
4:00am 38 41 mph 1011.7mb 28f
3:00am 41 47 mph 1013.6mb 28f